sensor_id;sensor_type;location;lat;lon;timestamp;temperature;humidity
21662;DHT22;10992;48.170;8.596;2023-02-03T00:00:30;2.80;99.90
21662;DHT22;10992;48.170;8.596;2023-02-03T00:02:58;2.80;99.90
21662;DHT22;10992;48.170;8.596;2023-02-03T00:05:25;2.80;99.90
21662;DHT22;10992;48.170;8.596;2023-02-03T00:07:52;2.80;99.90
21662;DHT22;10992;48.170;8.596;2023-02-03T00:10:19;2.80;99.90
21662;DHT22;10992;48.170;8.596;2023-02-03T00:12:49;2.80;99.90
21662;DHT22;10992;48.170;8.596;2023-02-03T00:15:16;2.80;99.90
21662;DHT22;10992;48.170;8.596;2023-02-03T00:17:44;2.80;99.90
21662;DHT22;10992;48.170;8.596;2023-02-03T00:20:11;2.80;99.90
21662;DHT22;10992;48.170;8.596;2023-02-03T00:22:40;2.80;99.90
21662;DHT22;10992;48.170;8.596;2023-02-03T00:25:07;2.80;99.90
21662;DHT22;10992;48.170;8.596;2023-02-03T00:27:34;2.80;99.90
21662;DHT22;10992;48.170;8.596;2023-02-03T00:30:01;2.90;99.90
21662;DHT22;10992;48.170;8.596;2023-02-03T00:32:28;2.90;99.90
21662;DHT22;10992;48.170;8.596;2023-02-03T00:34:56;2.90;99.90
21662;DHT22;10992;48.170;8.596;2023-02-03T00:37:23;2.90;99.90
21662;DHT22;10992;48.170;8.596;2023-02-03T00:39:50;2.90;99.90
21662;DHT22;10992;48.170;8.596;2023-02-03T00:42:17;2.80;99.90
21662;DHT22;10992;48.170;8.596;2023-02-03T00:44:44;2.80;99.90
21662;DHT22;10992;48.170;8.596;2023-02-03T00:47:11;2.90;99.90
21662;DHT22;10992;48.170;8.596;2023-02-03T00:49:38;2.90;99.90
21662;DHT22;10992;48.170;8.596;2023-02-03T00:52:05;2.90;99.90
21662;DHT22;10992;48.170;8.596;2023-02-03T00:54:32;2.80;99.90
21662;DHT22;10992;48.170;8.596;2023-02-03T00:56:59;2.80;99.90
21662;DHT22;10992;48.170;8.596;2023-02-03T00:59:26;2.80;99.90
21662;DHT22;10992;48.170;8.596;2023-02-03T01:01:53;2.80;99.90
21662;DHT22;10992;48.170;8.596;2023-02-03T01:04:20;2.80;99.90
21662;DHT22;10992;48.170;8.596;2023-02-03T01:06:47;2.90;99.90
21662;DHT22;10992;48.170;8.596;2023-02-03T01:09:13;2.80;99.90
21662;DHT22;10992;48.170;8.596;2023-02-03T01:11:40;2.90;99.90
21662;DHT22;10992;48.170;8.596;2023-02-03T01:14:07;2.90;99.90
21662;DHT22;10992;48.170;8.596;2023-02-03T01:16:35;2.80;99.90
21662;DHT22;10992;48.170;8.596;2023-02-03T01:19:04;2.80;99.90
21662;DHT22;10992;48.170;8.596;2023-02-03T01:21:31;2.90;99.90
21662;DHT22;10992;48.170;8.596;2023-02-03T01:23:59;2.90;99.90
21662;DHT22;10992;48.170;8.596;2023-02-03T01:26:26;2.90;99.90
21662;DHT22;10992;48.170;8.596;2023-02-03T01:28:55;2.90;99.90
21662;DHT22;10992;48.170;8.596;2023-02-03T01:31:25;2.90;99.90
21662;DHT22;10992;48.170;8.596;2023-02-03T01:33:53;2.90;99.90
21662;DHT22;10992;48.170;8.596;2023-02-03T01:36:22;2.90;99.90
21662;DHT22;10992;48.170;8.596;2023-02-03T01:38:50;2.90;99.90
21662;DHT22;10992;48.170;8.596;2023-02-03T01:41:20;2.90;99.90
21662;DHT22;10992;48.170;8.596;2023-02-03T01:43:50;2.90;99.90
21662;DHT22;10992;48.170;8.596;2023-02-03T01:48:58;2.80;99.90
21662;DHT22;10992;48.170;8.596;2023-02-03T01:51:27;2.80;99.90
21662;DHT22;10992;48.170;8.596;2023-02-03T01:53:55;2.80;99.90
21662;DHT22;10992;48.170;8.596;2023-02-03T01:56:24;2.70;99.90
21662;DHT22;10992;48.170;8.596;2023-02-03T01:58:53;2.70;99.90
21662;DHT22;10992;48.170;8.596;2023-02-03T02:01:20;2.60;99.90
21662;DHT22;10992;48.170;8.596;2023-02-03T02:03:54;2.60;99.90
21662;DHT22;10992;48.170;8.596;2023-02-03T02:06:22;2.60;99.90
21662;DHT22;10992;48.170;8.596;2023-02-03T02:08:51;2.60;99.90
21662;DHT22;10992;48.170;8.596;2023-02-03T02:11:19;2.60;99.90
21662;DHT22;10992;48.170;8.596;2023-02-03T02:13:49;2.60;99.90
21662;DHT22;10992;48.170;8.596;2023-02-03T02:16:25;2.60;99.90
21662;DHT22;10992;48.170;8.596;2023-02-03T02:22:21;2.50;99.90
21662;DHT22;10992;48.170;8.596;2023-02-03T02:36:39;2.60;99.90
21662;DHT22;10992;48.170;8.596;2023-02-03T02:44:48;2.60;99.90
21662;DHT22;10992;48.170;8.596;2023-02-03T02:47:21;2.60;99.90
21662;DHT22;10992;48.170;8.596;2023-02-03T02:50:16;2.50;99.90
21662;DHT22;10992;48.170;8.596;2023-02-03T02:52:47;2.60;99.90
21662;DHT22;10992;48.170;8.596;2023-02-03T02:55:23;2.60;99.90
21662;DHT22;10992;48.170;8.596;2023-02-03T02:58:02;2.50;99.90
21662;DHT22;10992;48.170;8.596;2023-02-03T03:00:36;2.50;99.90
21662;DHT22;10992;48.170;8.596;2023-02-03T03:03:12;2.50;99.90
21662;DHT22;10992;48.170;8.596;2023-02-03T03:05:45;2.50;99.90
21662;DHT22;10992;48.170;8.596;2023-02-03T03:08:21;2.50;99.90
21662;DHT22;10992;48.170;8.596;2023-02-03T03:10:50;2.50;99.90
21662;DHT22;10992;48.170;8.596;2023-02-03T03:13:23;2.50;99.90
21662;DHT22;10992;48.170;8.596;2023-02-03T03:15:53;2.50;99.90
21662;DHT22;10992;48.170;8.596;2023-02-03T03:18:40;2.50;99.90
21662;DHT22;10992;48.170;8.596;2023-02-03T03:21:13;2.50;99.90
21662;DHT22;10992;48.170;8.596;2023-02-03T03:23:43;2.40;99.90
21662;DHT22;10992;48.170;8.596;2023-02-03T03:29:19;2.50;99.90
21662;DHT22;10992;48.170;8.596;2023-02-03T03:31:47;2.40;99.90
21662;DHT22;10992;48.170;8.596;2023-02-03T03:34:16;2.40;99.90
21662;DHT22;10992;48.170;8.596;2023-02-03T03:37:04;2.40;99.90
21662;DHT22;10992;48.170;8.596;2023-02-03T03:42:24;2.40;99.90
21662;DHT22;10992;48.170;8.596;2023-02-03T03:44:56;2.40;99.90
21662;DHT22;10992;48.170;8.596;2023-02-03T03:49:59;2.40;99.90
21662;DHT22;10992;48.170;8.596;2023-02-03T03:52:30;2.40;99.90
21662;DHT22;10992;48.170;8.596;2023-02-03T03:54:59;2.30;99.90
21662;DHT22;10992;48.170;8.596;2023-02-03T03:58:00;2.30;99.90
21662;DHT22;10992;48.170;8.596;2023-02-03T04:00:31;2.30;99.90
21662;DHT22;10992;48.170;8.596;2023-02-03T04:03:04;2.30;99.90
21662;DHT22;10992;48.170;8.596;2023-02-03T04:05:33;2.30;99.90
21662;DHT22;10992;48.170;8.596;2023-02-03T04:08:00;2.30;99.90
21662;DHT22;10992;48.170;8.596;2023-02-03T04:10:38;2.30;99.90
21662;DHT22;10992;48.170;8.596;2023-02-03T04:13:06;2.20;99.90
21662;DHT22;10992;48.170;8.596;2023-02-03T04:15:34;2.10;99.90
21662;DHT22;10992;48.170;8.596;2023-02-03T04:18:02;2.10;99.90
21662;DHT22;10992;48.170;8.596;2023-02-03T04:20:31;2.10;99.90
21662;DHT22;10992;48.170;8.596;2023-02-03T04:22:58;2.10;99.90
21662;DHT22;10992;48.170;8.596;2023-02-03T04:25:26;2.10;99.90
21662;DHT22;10992;48.170;8.596;2023-02-03T04:27:53;2.00;99.90
21662;DHT22;10992;48.170;8.596;2023-02-03T04:30:21;2.00;99.90
21662;DHT22;10992;48.170;8.596;2023-02-03T04:32:48;2.10;99.90
21662;DHT22;10992;48.170;8.596;2023-02-03T04:35:18;2.10;99.90
21662;DHT22;10992;48.170;8.596;2023-02-03T04:37:46;2.10;99.90
21662;DHT22;10992;48.170;8.596;2023-02-03T04:40:13;2.20;99.90
21662;DHT22;10992;48.170;8.596;2023-02-03T04:42:41;2.20;99.90
21662;DHT22;10992;48.170;8.596;2023-02-03T04:45:09;2.20;99.90
21662;DHT22;10992;48.170;8.596;2023-02-03T04:47:37;2.20;99.90
21662;DHT22;10992;48.170;8.596;2023-02-03T04:50:05;2.20;99.90
21662;DHT22;10992;48.170;8.596;2023-02-03T04:52:32;2.20;99.90
21662;DHT22;10992;48.170;8.596;2023-02-03T04:54:59;2.30;99.90
21662;DHT22;10992;48.170;8.596;2023-02-03T04:57:26;2.40;99.90
21662;DHT22;10992;48.170;8.596;2023-02-03T04:59:52;2.40;99.90
21662;DHT22;10992;48.170;8.596;2023-02-03T05:02:21;2.40;99.90
21662;DHT22;10992;48.170;8.596;2023-02-03T05:04:48;2.50;99.90
21662;DHT22;10992;48.170;8.596;2023-02-03T05:07:18;2.50;99.90
21662;DHT22;10992;48.170;8.596;2023-02-03T05:09:45;2.50;99.90
21662;DHT22;10992;48.170;8.596;2023-02-03T05:12:12;2.50;99.90
21662;DHT22;10992;48.170;8.596;2023-02-03T05:14:39;2.50;99.90
21662;DHT22;10992;48.170;8.596;2023-02-03T05:17:06;2.50;99.90
21662;DHT22;10992;48.170;8.596;2023-02-03T05:19:32;2.60;99.90
21662;DHT22;10992;48.170;8.596;2023-02-03T05:21:59;2.50;99.90
21662;DHT22;10992;48.170;8.596;2023-02-03T05:24:26;2.50;99.90
21662;DHT22;10992;48.170;8.596;2023-02-03T05:26:53;2.60;99.90
21662;DHT22;10992;48.170;8.596;2023-02-03T05:29:20;2.60;99.90
21662;DHT22;10992;48.170;8.596;2023-02-03T05:31:47;2.60;99.90
21662;DHT22;10992;48.170;8.596;2023-02-03T05:34:14;2.70;99.90
21662;DHT22;10992;48.170;8.596;2023-02-03T05:36:41;2.70;99.90
21662;DHT22;10992;48.170;8.596;2023-02-03T05:39:08;2.60;99.90
21662;DHT22;10992;48.170;8.596;2023-02-03T05:41:35;2.60;99.90
21662;DHT22;10992;48.170;8.596;2023-02-03T05:44:25;2.50;99.90
21662;DHT22;10992;48.170;8.596;2023-02-03T05:46:56;2.40;99.90
21662;DHT22;10992;48.170;8.596;2023-02-03T05:49:23;2.30;99.90
21662;DHT22;10992;48.170;8.596;2023-02-03T05:51:52;2.30;99.90
21662;DHT22;10992;48.170;8.596;2023-02-03T05:54:19;2.30;99.90
21662;DHT22;10992;48.170;8.596;2023-02-03T05:56:49;2.20;99.90
21662;DHT22;10992;48.170;8.596;2023-02-03T05:59:16;2.20;99.90
21662;DHT22;10992;48.170;8.596;2023-02-03T06:01:44;2.30;99.90
21662;DHT22;10992;48.170;8.596;2023-02-03T06:04:11;2.30;99.90
21662;DHT22;10992;48.170;8.596;2023-02-03T06:06:38;2.30;99.90
21662;DHT22;10992;48.170;8.596;2023-02-03T06:09:06;2.30;99.90
21662;DHT22;10992;48.170;8.596;2023-02-03T06:11:34;2.40;99.90
21662;DHT22;10992;48.170;8.596;2023-02-03T06:14:02;2.40;99.90
21662;DHT22;10992;48.170;8.596;2023-02-03T06:16:29;2.40;99.90
21662;DHT22;10992;48.170;8.596;2023-02-03T06:18:57;2.50;99.90
21662;DHT22;10992;48.170;8.596;2023-02-03T06:21:25;2.50;99.90
21662;DHT22;10992;48.170;8.596;2023-02-03T06:23:53;2.50;99.90
21662;DHT22;10992;48.170;8.596;2023-02-03T06:26:21;2.50;99.90
21662;DHT22;10992;48.170;8.596;2023-02-03T06:28:48;2.50;99.90
21662;DHT22;10992;48.170;8.596;2023-02-03T06:31:15;2.50;99.90
21662;DHT22;10992;48.170;8.596;2023-02-03T06:33:43;2.50;99.90
21662;DHT22;10992;48.170;8.596;2023-02-03T06:36:10;2.50;99.90
21662;DHT22;10992;48.170;8.596;2023-02-03T06:38:37;2.50;99.90
21662;DHT22;10992;48.170;8.596;2023-02-03T06:41:04;2.40;99.90
21662;DHT22;10992;48.170;8.596;2023-02-03T06:43:31;2.50;99.90
21662;DHT22;10992;48.170;8.596;2023-02-03T06:45:58;2.80;99.90
21662;DHT22;10992;48.170;8.596;2023-02-03T06:48:25;2.90;99.90
21662;DHT22;10992;48.170;8.596;2023-02-03T06:50:52;3.00;99.90
21662;DHT22;10992;48.170;8.596;2023-02-03T06:53:20;3.10;99.90
21662;DHT22;10992;48.170;8.596;2023-02-03T06:55:47;3.00;99.90
21662;DHT22;10992;48.170;8.596;2023-02-03T06:58:14;2.90;99.90
21662;DHT22;10992;48.170;8.596;2023-02-03T07:00:41;2.80;99.90
21662;DHT22;10992;48.170;8.596;2023-02-03T07:03:08;2.70;99.90
21662;DHT22;10992;48.170;8.596;2023-02-03T07:05:35;2.60;99.90
21662;DHT22;10992;48.170;8.596;2023-02-03T07:08:02;2.50;99.90
21662;DHT22;10992;48.170;8.596;2023-02-03T07:10:29;2.40;99.90
21662;DHT22;10992;48.170;8.596;2023-02-03T07:13:04;2.40;99.90
21662;DHT22;10992;48.170;8.596;2023-02-03T07:15:32;2.40;99.90
21662;DHT22;10992;48.170;8.596;2023-02-03T07:17:59;2.40;99.90
21662;DHT22;10992;48.170;8.596;2023-02-03T07:20:26;2.40;99.90
21662;DHT22;10992;48.170;8.596;2023-02-03T07:22:56;2.40;99.90
21662;DHT22;10992;48.170;8.596;2023-02-03T07:25:24;2.40;99.90
21662;DHT22;10992;48.170;8.596;2023-02-03T07:27:54;2.40;99.90
21662;DHT22;10992;48.170;8.596;2023-02-03T07:30:21;2.50;99.90
21662;DHT22;10992;48.170;8.596;2023-02-03T07:32:49;2.50;99.90
21662;DHT22;10992;48.170;8.596;2023-02-03T07:35:17;2.60;99.90
21662;DHT22;10992;48.170;8.596;2023-02-03T07:37:44;2.60;99.90
21662;DHT22;10992;48.170;8.596;2023-02-03T07:40:12;2.70;99.90
21662;DHT22;10992;48.170;8.596;2023-02-03T07:42:45;2.80;99.90
21662;DHT22;10992;48.170;8.596;2023-02-03T07:45:15;2.90;99.90
21662;DHT22;10992;48.170;8.596;2023-02-03T07:47:43;3.00;99.90
21662;DHT22;10992;48.170;8.596;2023-02-03T07:50:11;3.00;99.90
21662;DHT22;10992;48.170;8.596;2023-02-03T07:52:38;3.20;99.90
21662;DHT22;10992;48.170;8.596;2023-02-03T07:55:05;3.30;99.90
21662;DHT22;10992;48.170;8.596;2023-02-03T07:57:32;3.40;99.90
21662;DHT22;10992;48.170;8.596;2023-02-03T07:59:59;3.40;99.90
21662;DHT22;10992;48.170;8.596;2023-02-03T08:02:26;3.50;99.90
21662;DHT22;10992;48.170;8.596;2023-02-03T08:04:52;3.60;99.90
21662;DHT22;10992;48.170;8.596;2023-02-03T08:07:20;3.70;99.90
21662;DHT22;10992;48.170;8.596;2023-02-03T08:09:46;3.70;99.90
21662;DHT22;10992;48.170;8.596;2023-02-03T08:12:13;3.80;99.90
21662;DHT22;10992;48.170;8.596;2023-02-03T08:14:40;3.80;99.90
21662;DHT22;10992;48.170;8.596;2023-02-03T08:17:07;3.80;99.90
21662;DHT22;10992;48.170;8.596;2023-02-03T08:19:34;3.80;99.90
21662;DHT22;10992;48.170;8.596;2023-02-03T08:22:01;3.70;99.90
21662;DHT22;10992;48.170;8.596;2023-02-03T08:24:28;3.70;99.90
21662;DHT22;10992;48.170;8.596;2023-02-03T08:26:55;3.60;99.90
21662;DHT22;10992;48.170;8.596;2023-02-03T08:29:22;3.70;99.90
21662;DHT22;10992;48.170;8.596;2023-02-03T08:31:49;3.70;99.90
21662;DHT22;10992;48.170;8.596;2023-02-03T08:34:16;3.80;99.90
21662;DHT22;10992;48.170;8.596;2023-02-03T08:36:43;3.80;99.90
21662;DHT22;10992;48.170;8.596;2023-02-03T08:39:10;3.90;99.90
21662;DHT22;10992;48.170;8.596;2023-02-03T08:41:37;4.00;99.90
21662;DHT22;10992;48.170;8.596;2023-02-03T08:44:04;4.00;99.90
21662;DHT22;10992;48.170;8.596;2023-02-03T08:46:31;3.90;99.90
21662;DHT22;10992;48.170;8.596;2023-02-03T08:48:59;4.00;99.90
21662;DHT22;10992;48.170;8.596;2023-02-03T08:51:28;4.00;99.90
21662;DHT22;10992;48.170;8.596;2023-02-03T08:53:55;4.10;99.90
21662;DHT22;10992;48.170;8.596;2023-02-03T08:56:22;4.20;99.90
21662;DHT22;10992;48.170;8.596;2023-02-03T08:58:52;4.20;99.90
21662;DHT22;10992;48.170;8.596;2023-02-03T09:01:21;4.10;99.90
21662;DHT22;10992;48.170;8.596;2023-02-03T09:03:48;4.10;99.90
21662;DHT22;10992;48.170;8.596;2023-02-03T09:06:15;4.20;99.90
21662;DHT22;10992;48.170;8.596;2023-02-03T09:08:43;4.20;99.90
21662;DHT22;10992;48.170;8.596;2023-02-03T09:11:11;4.30;99.90
21662;DHT22;10992;48.170;8.596;2023-02-03T09:13:40;4.20;99.90
21662;DHT22;10992;48.170;8.596;2023-02-03T09:16:12;4.20;99.90
21662;DHT22;10992;48.170;8.596;2023-02-03T09:18:39;4.20;99.90
21662;DHT22;10992;48.170;8.596;2023-02-03T09:21:08;4.20;99.90
21662;DHT22;10992;48.170;8.596;2023-02-03T09:23:53;4.20;99.90
21662;DHT22;10992;48.170;8.596;2023-02-03T09:26:20;4.30;99.90
21662;DHT22;10992;48.170;8.596;2023-02-03T09:28:49;4.40;99.90
21662;DHT22;10992;48.170;8.596;2023-02-03T09:31:17;4.30;99.90
21662;DHT22;10992;48.170;8.596;2023-02-03T09:33:45;4.40;99.90
21662;DHT22;10992;48.170;8.596;2023-02-03T09:36:13;4.50;99.90
21662;DHT22;10992;48.170;8.596;2023-02-03T09:38:40;4.50;99.90
21662;DHT22;10992;48.170;8.596;2023-02-03T09:46:47;4.60;99.90
21662;DHT22;10992;48.170;8.596;2023-02-03T09:49:28;4.50;99.90
21662;DHT22;10992;48.170;8.596;2023-02-03T09:52:07;4.50;99.90
21662;DHT22;10992;48.170;8.596;2023-02-03T09:55:02;4.50;99.90
21662;DHT22;10992;48.170;8.596;2023-02-03T09:57:36;4.50;99.90
21662;DHT22;10992;48.170;8.596;2023-02-03T10:00:27;4.60;99.90
21662;DHT22;10992;48.170;8.596;2023-02-03T10:03:06;4.60;99.90
21662;DHT22;10992;48.170;8.596;2023-02-03T10:14:49;5.50;99.90
21662;DHT22;10992;48.170;8.596;2023-02-03T10:17:42;5.80;99.90
21662;DHT22;10992;48.170;8.596;2023-02-03T10:22:56;6.40;99.90
21662;DHT22;10992;48.170;8.596;2023-02-03T10:25:41;6.40;99.90
21662;DHT22;10992;48.170;8.596;2023-02-03T10:28:23;6.30;99.90
21662;DHT22;10992;48.170;8.596;2023-02-03T10:30:59;6.00;99.90
21662;DHT22;10992;48.170;8.596;2023-02-03T10:33:28;6.20;99.90
21662;DHT22;10992;48.170;8.596;2023-02-03T10:41:11;7.00;99.90
21662;DHT22;10992;48.170;8.596;2023-02-03T10:43:38;6.90;99.90
21662;DHT22;10992;48.170;8.596;2023-02-03T10:46:32;6.70;99.90
21662;DHT22;10992;48.170;8.596;2023-02-03T10:49:00;7.00;99.90
21662;DHT22;10992;48.170;8.596;2023-02-03T10:51:33;6.90;99.90
21662;DHT22;10992;48.170;8.596;2023-02-03T10:54:01;6.60;99.90
21662;DHT22;10992;48.170;8.596;2023-02-03T10:56:36;6.70;99.90
21662;DHT22;10992;48.170;8.596;2023-02-03T10:59:04;6.90;99.90
21662;DHT22;10992;48.170;8.596;2023-02-03T11:01:41;7.70;99.90
21662;DHT22;10992;48.170;8.596;2023-02-03T11:04:39;8.10;99.90
21662;DHT22;10992;48.170;8.596;2023-02-03T11:07:20;8.30;99.90
21662;DHT22;10992;48.170;8.596;2023-02-03T11:09:49;8.40;99.90
21662;DHT22;10992;48.170;8.596;2023-02-03T11:12:18;8.60;99.90
21662;DHT22;10992;48.170;8.596;2023-02-03T11:14:46;9.10;99.90
21662;DHT22;10992;48.170;8.596;2023-02-03T11:17:17;9.90;99.90
21662;DHT22;10992;48.170;8.596;2023-02-03T11:19:46;9.60;99.90
21662;DHT22;10992;48.170;8.596;2023-02-03T11:24:53;9.10;99.90
21662;DHT22;10992;48.170;8.596;2023-02-03T11:27:20;9.10;99.90
21662;DHT22;10992;48.170;8.596;2023-02-03T11:29:53;9.00;99.90
21662;DHT22;10992;48.170;8.596;2023-02-03T11:32:37;8.90;99.90
21662;DHT22;10992;48.170;8.596;2023-02-03T11:35:20;8.00;99.90
21662;DHT22;10992;48.170;8.596;2023-02-03T11:37:52;8.00;99.90
21662;DHT22;10992;48.170;8.596;2023-02-03T11:45:26;7.70;99.90
21662;DHT22;10992;48.170;8.596;2023-02-03T12:04:54;7.80;99.90
21662;DHT22;10992;48.170;8.596;2023-02-03T12:13:48;7.20;99.90
21662;DHT22;10992;48.170;8.596;2023-02-03T12:18:31;7.10;99.90
21662;DHT22;10992;48.170;8.596;2023-02-03T12:21:15;6.90;99.90
21662;DHT22;10992;48.170;8.596;2023-02-03T12:26:41;6.70;99.90
21662;DHT22;10992;48.170;8.596;2023-02-03T12:29:20;6.70;99.90
21662;DHT22;10992;48.170;8.596;2023-02-03T12:31:58;6.70;99.90
21662;DHT22;10992;48.170;8.596;2023-02-03T12:34:31;6.50;99.90
21662;DHT22;10992;48.170;8.596;2023-02-03T12:37:14;6.30;99.90
21662;DHT22;10992;48.170;8.596;2023-02-03T12:39:47;6.10;99.90
21662;DHT22;10992;48.170;8.596;2023-02-03T12:42:36;6.00;99.90
21662;DHT22;10992;48.170;8.596;2023-02-03T12:45:12;5.90;99.90
21662;DHT22;10992;48.170;8.596;2023-02-03T12:47:48;5.90;99.90
21662;DHT22;10992;48.170;8.596;2023-02-03T12:53:04;5.90;99.90
21662;DHT22;10992;48.170;8.596;2023-02-03T12:55:38;5.80;99.90
21662;DHT22;10992;48.170;8.596;2023-02-03T12:58:17;5.70;99.90
21662;DHT22;10992;48.170;8.596;2023-02-03T13:01:05;5.70;99.90
21662;DHT22;10992;48.170;8.596;2023-02-03T13:04:04;5.70;99.90
21662;DHT22;10992;48.170;8.596;2023-02-03T13:07:01;5.70;99.90
21662;DHT22;10992;48.170;8.596;2023-02-03T13:09:37;5.50;99.90
21662;DHT22;10992;48.170;8.596;2023-02-03T13:14:52;5.50;99.90
21662;DHT22;10992;48.170;8.596;2023-02-03T13:17:26;5.50;99.90
21662;DHT22;10992;48.170;8.596;2023-02-03T13:19:58;5.50;99.90
21662;DHT22;10992;48.170;8.596;2023-02-03T13:22:26;5.30;99.90
21662;DHT22;10992;48.170;8.596;2023-02-03T13:24:58;5.30;99.90
21662;DHT22;10992;48.170;8.596;2023-02-03T13:27:38;5.30;99.90
21662;DHT22;10992;48.170;8.596;2023-02-03T13:40:55;5.20;99.90
21662;DHT22;10992;48.170;8.596;2023-02-03T13:43:28;5.10;99.90
21662;DHT22;10992;48.170;8.596;2023-02-03T13:46:07;5.20;99.90
21662;DHT22;10992;48.170;8.596;2023-02-03T13:48:36;5.20;99.90
21662;DHT22;10992;48.170;8.596;2023-02-03T13:51:05;5.10;99.90
21662;DHT22;10992;48.170;8.596;2023-02-03T13:53:35;5.10;99.90
21662;DHT22;10992;48.170;8.596;2023-02-03T13:56:04;5.10;99.90
21662;DHT22;10992;48.170;8.596;2023-02-03T13:58:35;5.00;99.90
21662;DHT22;10992;48.170;8.596;2023-02-03T14:01:27;5.00;99.90
21662;DHT22;10992;48.170;8.596;2023-02-03T14:03:56;5.10;99.90
21662;DHT22;10992;48.170;8.596;2023-02-03T14:12:22;5.00;99.90
21662;DHT22;10992;48.170;8.596;2023-02-03T14:14:59;5.00;99.90
21662;DHT22;10992;48.170;8.596;2023-02-03T14:20:02;5.00;99.90
21662;DHT22;10992;48.170;8.596;2023-02-03T14:22:30;5.00;99.90
21662;DHT22;10992;48.170;8.596;2023-02-03T14:25:03;5.00;99.90
21662;DHT22;10992;48.170;8.596;2023-02-03T14:27:31;5.00;99.90
21662;DHT22;10992;48.170;8.596;2023-02-03T14:30:07;5.00;99.90
21662;DHT22;10992;48.170;8.596;2023-02-03T14:35:20;5.00;99.90
21662;DHT22;10992;48.170;8.596;2023-02-03T14:37:54;5.00;99.90
21662;DHT22;10992;48.170;8.596;2023-02-03T14:40:34;5.00;99.90
21662;DHT22;10992;48.170;8.596;2023-02-03T15:00:04;5.00;99.90
21662;DHT22;10992;48.170;8.596;2023-02-03T15:02:33;5.00;99.90
21662;DHT22;10992;48.170;8.596;2023-02-03T15:07:49;5.00;99.90
21662;DHT22;10992;48.170;8.596;2023-02-03T15:10:20;5.00;99.90
21662;DHT22;10992;48.170;8.596;2023-02-03T15:12:49;5.00;99.90
21662;DHT22;10992;48.170;8.596;2023-02-03T15:17:56;5.00;99.90
21662;DHT22;10992;48.170;8.596;2023-02-03T15:20:39;4.90;99.90
21662;DHT22;10992;48.170;8.596;2023-02-03T15:25:58;5.00;99.90
21662;DHT22;10992;48.170;8.596;2023-02-03T15:28:27;5.00;99.90
21662;DHT22;10992;48.170;8.596;2023-02-03T15:31:17;5.00;99.90
21662;DHT22;10992;48.170;8.596;2023-02-03T15:33:46;4.90;99.90
21662;DHT22;10992;48.170;8.596;2023-02-03T15:36:21;4.90;99.90
21662;DHT22;10992;48.170;8.596;2023-02-03T15:39:04;4.90;99.90
21662;DHT22;10992;48.170;8.596;2023-02-03T15:41:33;4.80;99.90
21662;DHT22;10992;48.170;8.596;2023-02-03T15:44:11;4.80;99.90
21662;DHT22;10992;48.170;8.596;2023-02-03T15:46:44;4.70;99.90
21662;DHT22;10992;48.170;8.596;2023-02-03T15:49:22;4.70;99.90
21662;DHT22;10992;48.170;8.596;2023-02-03T15:51:55;4.70;99.90
21662;DHT22;10992;48.170;8.596;2023-02-03T15:54:32;4.70;99.90
21662;DHT22;10992;48.170;8.596;2023-02-03T15:57:09;4.70;99.90
21662;DHT22;10992;48.170;8.596;2023-02-03T15:59:43;4.60;99.90
21662;DHT22;10992;48.170;8.596;2023-02-03T16:02:32;4.60;99.90
21662;DHT22;10992;48.170;8.596;2023-02-03T16:07:52;4.50;99.90
21662;DHT22;10992;48.170;8.596;2023-02-03T16:10:32;4.50;99.90
21662;DHT22;10992;48.170;8.596;2023-02-03T16:13:19;4.40;99.90
21662;DHT22;10992;48.170;8.596;2023-02-03T16:16:13;4.30;99.90
21662;DHT22;10992;48.170;8.596;2023-02-03T16:18:50;4.20;99.90
21662;DHT22;10992;48.170;8.596;2023-02-03T16:23:55;4.00;99.90
21662;DHT22;10992;48.170;8.596;2023-02-03T16:26:23;4.00;99.90
21662;DHT22;10992;48.170;8.596;2023-02-03T16:31:54;3.80;99.90
21662;DHT22;10992;48.170;8.596;2023-02-03T16:34:40;3.80;99.90
21662;DHT22;10992;48.170;8.596;2023-02-03T16:37:29;3.80;99.90
21662;DHT22;10992;48.170;8.596;2023-02-03T16:40:21;3.80;99.90
21662;DHT22;10992;48.170;8.596;2023-02-03T16:43:16;3.80;99.90
21662;DHT22;10992;48.170;8.596;2023-02-03T16:46:02;3.80;99.90
21662;DHT22;10992;48.170;8.596;2023-02-03T16:48:47;3.80;99.90
21662;DHT22;10992;48.170;8.596;2023-02-03T16:51:38;3.80;99.90
21662;DHT22;10992;48.170;8.596;2023-02-03T16:54:10;3.80;99.90
21662;DHT22;10992;48.170;8.596;2023-02-03T16:56:39;3.80;99.90
21662;DHT22;10992;48.170;8.596;2023-02-03T16:59:06;3.80;99.90
21662;DHT22;10992;48.170;8.596;2023-02-03T17:01:33;3.80;99.90
21662;DHT22;10992;48.170;8.596;2023-02-03T17:04:00;3.80;99.90
21662;DHT22;10992;48.170;8.596;2023-02-03T17:06:27;3.80;99.90
21662;DHT22;10992;48.170;8.596;2023-02-03T17:08:54;3.80;99.90
21662;DHT22;10992;48.170;8.596;2023-02-03T17:11:24;3.80;99.90
21662;DHT22;10992;48.170;8.596;2023-02-03T17:13:52;3.80;99.90
21662;DHT22;10992;48.170;8.596;2023-02-03T17:16:22;3.80;99.90
21662;DHT22;10992;48.170;8.596;2023-02-03T17:18:51;3.80;99.90
21662;DHT22;10992;48.170;8.596;2023-02-03T17:21:21;3.70;99.90
21662;DHT22;10992;48.170;8.596;2023-02-03T17:23:52;3.60;99.90
21662;DHT22;10992;48.170;8.596;2023-02-03T17:26:19;3.60;99.90
21662;DHT22;10992;48.170;8.596;2023-02-03T17:28:46;3.60;99.90
21662;DHT22;10992;48.170;8.596;2023-02-03T17:31:15;3.50;99.90
21662;DHT22;10992;48.170;8.596;2023-02-03T17:33:43;3.50;99.90
21662;DHT22;10992;48.170;8.596;2023-02-03T17:36:12;3.40;99.90
21662;DHT22;10992;48.170;8.596;2023-02-03T17:38:45;3.40;99.90
21662;DHT22;10992;48.170;8.596;2023-02-03T17:41:30;3.40;99.90
21662;DHT22;10992;48.170;8.596;2023-02-03T17:44:14;3.40;99.90
21662;DHT22;10992;48.170;8.596;2023-02-03T17:46:58;3.30;99.90
21662;DHT22;10992;48.170;8.596;2023-02-03T17:49:43;3.30;99.90
21662;DHT22;10992;48.170;8.596;2023-02-03T17:52:27;3.30;99.90
21662;DHT22;10992;48.170;8.596;2023-02-03T17:55:11;3.40;99.90
21662;DHT22;10992;48.170;8.596;2023-02-03T17:57:39;3.40;99.90
21662;DHT22;10992;48.170;8.596;2023-02-03T18:00:06;3.50;99.90
21662;DHT22;10992;48.170;8.596;2023-02-03T18:02:42;3.50;99.90
21662;DHT22;10992;48.170;8.596;2023-02-03T18:05:09;3.60;99.90
21662;DHT22;10992;48.170;8.596;2023-02-03T18:07:36;3.60;99.90
21662;DHT22;10992;48.170;8.596;2023-02-03T18:10:04;3.60;99.90
21662;DHT22;10992;48.170;8.596;2023-02-03T18:12:31;3.60;99.90
21662;DHT22;10992;48.170;8.596;2023-02-03T18:14:58;3.60;99.90
21662;DHT22;10992;48.170;8.596;2023-02-03T18:17:24;3.70;99.90
21662;DHT22;10992;48.170;8.596;2023-02-03T18:19:51;3.70;99.90
21662;DHT22;10992;48.170;8.596;2023-02-03T18:22:22;3.70;99.90
21662;DHT22;10992;48.170;8.596;2023-02-03T18:24:49;3.70;99.90
21662;DHT22;10992;48.170;8.596;2023-02-03T18:27:18;3.80;99.90
21662;DHT22;10992;48.170;8.596;2023-02-03T18:29:46;3.80;99.90
21662;DHT22;10992;48.170;8.596;2023-02-03T18:32:15;3.80;99.90
21662;DHT22;10992;48.170;8.596;2023-02-03T18:34:42;3.80;99.90
21662;DHT22;10992;48.170;8.596;2023-02-03T18:37:09;3.80;99.90
21662;DHT22;10992;48.170;8.596;2023-02-03T18:39:37;3.80;99.90
21662;DHT22;10992;48.170;8.596;2023-02-03T18:42:04;3.80;99.90